sensor_id;sensor_type;location;lat;lon;timestamp;P1;durP1;ratioP1;P2;durP2;ratioP2
63032;SDS011;49121;38.932;-9.018;2022-09-09T00:02:01;11.32;;;2.40;;
63032;SDS011;49121;38.932;-9.018;2022-09-09T00:06:33;7.47;;;1.80;;
63032;SDS011;49121;38.932;-9.018;2022-09-09T00:11:26;10.82;;;2.40;;
63032;SDS011;49121;38.932;-9.018;2022-09-09T00:13:38;9.18;;;2.50;;
63032;SDS011;49121;38.932;-9.018;2022-09-09T00:20:35;8.07;;;2.17;;
63032;SDS011;49121;38.932;-9.018;2022-09-09T00:22:40;12.40;;;2.38;;
63032;SDS011;49121;38.932;-9.018;2022-09-09T00:24:54;9.57;;;3.15;;
63032;SDS011;49121;38.932;-9.018;2022-09-09T00:27:00;6.70;;;2.20;;
63032;SDS011;49121;38.932;-9.018;2022-09-09T00:32:16;21.55;;;3.33;;
63032;SDS011;49121;38.932;-9.018;2022-09-09T00:40:11;6.95;;;1.80;;
63032;SDS011;49121;38.932;-9.018;2022-09-09T00:42:23;7.18;;;2.70;;
63032;SDS011;49121;38.932;-9.018;2022-09-09T00:44:38;8.93;;;2.00;;
63032;SDS011;49121;38.932;-9.018;2022-09-09T00:56:16;11.63;;;2.33;;
63032;SDS011;49121;38.932;-9.018;2022-09-09T00:58:21;8.23;;;2.05;;
63032;SDS011;49121;38.932;-9.018;2022-09-09T01:00:29;8.40;;;2.40;;
63032;SDS011;49121;38.932;-9.018;2022-09-09T01:02:39;8.63;;;2.30;;
63032;SDS011;49121;38.932;-9.018;2022-09-09T01:05:05;10.02;;;3.65;;
63032;SDS011;49121;38.932;-9.018;2022-09-09T01:07:21;10.82;;;2.92;;
63032;SDS011;49121;38.932;-9.018;2022-09-09T01:09:32;7.15;;;2.17;;
63032;SDS011;49121;38.932;-9.018;2022-09-09T01:11:57;10.25;;;2.45;;
63032;SDS011;49121;38.932;-9.018;2022-09-09T01:16:57;15.00;;;2.50;;
63032;SDS011;49121;38.932;-9.018;2022-09-09T01:19:24;8.30;;;2.40;;
63032;SDS011;49121;38.932;-9.018;2022-09-09T01:21:42;9.18;;;2.10;;
63032;SDS011;49121;38.932;-9.018;2022-09-09T01:28:25;7.68;;;2.60;;
63032;SDS011;49121;38.932;-9.018;2022-09-09T01:30:32;6.07;;;2.03;;
63032;SDS011;49121;38.932;-9.018;2022-09-09T01:34:38;9.98;;;2.00;;
63032;SDS011;49121;38.932;-9.018;2022-09-09T01:41:50;7.15;;;2.20;;
63032;SDS011;49121;38.932;-9.018;2022-09-09T01:43:54;17.65;;;2.80;;
63032;SDS011;49121;38.932;-9.018;2022-09-09T01:45:56;6.25;;;2.05;;
63032;SDS011;49121;38.932;-9.018;2022-09-09T01:48:00;9.27;;;2.08;;
63032;SDS011;49121;38.932;-9.018;2022-09-09T01:50:15;10.63;;;2.60;;
63032;SDS011;49121;38.932;-9.018;2022-09-09T01:52:21;15.13;;;2.95;;
63032;SDS011;49121;38.932;-9.018;2022-09-09T01:54:23;10.27;;;2.22;;
63032;SDS011;49121;38.932;-9.018;2022-09-09T02:07:55;6.28;;;2.15;;
63032;SDS011;49121;38.932;-9.018;2022-09-09T02:10:24;10.70;;;2.30;;
63032;SDS011;49121;38.932;-9.018;2022-09-09T02:12:43;12.55;;;2.70;;
63032;SDS011;49121;38.932;-9.018;2022-09-09T02:14:49;11.50;;;2.83;;
63032;SDS011;49121;38.932;-9.018;2022-09-09T02:16:59;8.48;;;1.95;;
63032;SDS011;49121;38.932;-9.018;2022-09-09T02:19:23;16.02;;;2.30;;
63032;SDS011;49121;38.932;-9.018;2022-09-09T02:21:52;9.95;;;2.60;;
63032;SDS011;49121;38.932;-9.018;2022-09-09T02:23:56;6.15;;;2.47;;
63032;SDS011;49121;38.932;-9.018;2022-09-09T02:26:03;10.32;;;2.17;;
63032;SDS011;49121;38.932;-9.018;2022-09-09T02:28:06;9.18;;;2.45;;
63032;SDS011;49121;38.932;-9.018;2022-09-09T02:30:10;6.30;;;2.22;;
63032;SDS011;49121;38.932;-9.018;2022-09-09T02:32:19;9.57;;;2.15;;
63032;SDS011;49121;38.932;-9.018;2022-09-09T02:34:23;12.55;;;2.50;;
63032;SDS011;49121;38.932;-9.018;2022-09-09T02:36:26;9.73;;;2.65;;
63032;SDS011;49121;38.932;-9.018;2022-09-09T02:38:35;9.05;;;2.67;;
63032;SDS011;49121;38.932;-9.018;2022-09-09T02:42:46;12.30;;;2.60;;
63032;SDS011;49121;38.932;-9.018;2022-09-09T02:44:48;8.50;;;2.13;;
63032;SDS011;49121;38.932;-9.018;2022-09-09T02:47:03;9.18;;;2.72;;
63032;SDS011;49121;38.932;-9.018;2022-09-09T02:51:43;10.45;;;2.83;;
63032;SDS011;49121;38.932;-9.018;2022-09-09T02:56:25;5.53;;;1.92;;
63032;SDS011;49121;38.932;-9.018;2022-09-09T02:58:32;9.45;;;2.47;;
63032;SDS011;49121;38.932;-9.018;2022-09-09T03:00:38;7.45;;;2.30;;
63032;SDS011;49121;38.932;-9.018;2022-09-09T03:02:41;8.40;;;2.53;;
63032;SDS011;49121;38.932;-9.018;2022-09-09T03:04:42;10.63;;;2.97;;
63032;SDS011;49121;38.932;-9.018;2022-09-09T03:06:47;14.32;;;2.33;;
63032;SDS011;49121;38.932;-9.018;2022-09-09T03:08:52;9.52;;;3.03;;
63032;SDS011;49121;38.932;-9.018;2022-09-09T03:10:58;13.10;;;2.47;;
63032;SDS011;49121;38.932;-9.018;2022-09-09T03:13:02;7.45;;;2.15;;
63032;SDS011;49121;38.932;-9.018;2022-09-09T03:15:13;11.32;;;2.35;;
63032;SDS011;49121;38.932;-9.018;2022-09-09T03:17:15;6.30;;;2.10;;
63032;SDS011;49121;38.932;-9.018;2022-09-09T03:19:24;5.57;;;2.10;;
63032;SDS011;49121;38.932;-9.018;2022-09-09T03:21:25;6.78;;;2.10;;
63032;SDS011;49121;38.932;-9.018;2022-09-09T03:23:25;7.85;;;2.88;;
63032;SDS011;49121;38.932;-9.018;2022-09-09T03:25:26;9.55;;;2.13;;
63032;SDS011;49121;38.932;-9.018;2022-09-09T03:27:29;8.32;;;2.30;;
63032;SDS011;49121;38.932;-9.018;2022-09-09T03:29:30;5.25;;;2.30;;
63032;SDS011;49121;38.932;-9.018;2022-09-09T03:31:33;10.25;;;1.92;;
63032;SDS011;49121;38.932;-9.018;2022-09-09T03:33:37;10.43;;;2.00;;
63032;SDS011;49121;38.932;-9.018;2022-09-09T03:35:44;8.93;;;2.40;;
63032;SDS011;49121;38.932;-9.018;2022-09-09T03:37:49;7.78;;;2.22;;
63032;SDS011;49121;38.932;-9.018;2022-09-09T03:39:51;11.15;;;2.35;;
63032;SDS011;49121;38.932;-9.018;2022-09-09T03:42:13;6.70;;;2.15;;
63032;SDS011;49121;38.932;-9.018;2022-09-09T03:44:33;8.50;;;2.28;;
63032;SDS011;49121;38.932;-9.018;2022-09-09T03:46:34;7.32;;;2.03;;
63032;SDS011;49121;38.932;-9.018;2022-09-09T03:48:35;5.32;;;2.42;;
63032;SDS011;49121;38.932;-9.018;2022-09-09T03:50:37;9.13;;;1.80;;
63032;SDS011;49121;38.932;-9.018;2022-09-09T03:52:39;12.02;;;2.30;;
63032;SDS011;49121;38.932;-9.018;2022-09-09T03:54:45;6.95;;;2.05;;
63032;SDS011;49121;38.932;-9.018;2022-09-09T03:56:53;6.20;;;2.08;;
63032;SDS011;49121;38.932;-9.018;2022-09-09T03:58:56;5.75;;;2.22;;
63032;SDS011;49121;38.932;-9.018;2022-09-09T04:00:58;13.32;;;1.92;;
63032;SDS011;49121;38.932;-9.018;2022-09-09T04:03:03;3.80;;;1.10;;
63032;SDS011;49121;38.932;-9.018;2022-09-09T04:05:04;4.90;;;1.30;;
63032;SDS011;49121;38.932;-9.018;2022-09-09T04:07:07;2.92;;;1.35;;
63032;SDS011;49121;38.932;-9.018;2022-09-09T04:09:08;8.55;;;1.95;;
63032;SDS011;49121;38.932;-9.018;2022-09-09T04:11:09;8.60;;;1.50;;
63032;SDS011;49121;38.932;-9.018;2022-09-09T04:13:12;3.67;;;1.45;;
63032;SDS011;49121;38.932;-9.018;2022-09-09T04:15:15;3.08;;;1.60;;
63032;SDS011;49121;38.932;-9.018;2022-09-09T04:17:17;7.20;;;1.73;;
63032;SDS011;49121;38.932;-9.018;2022-09-09T04:19:18;11.23;;;1.90;;
63032;SDS011;49121;38.932;-9.018;2022-09-09T04:21:18;5.93;;;1.38;;
63032;SDS011;49121;38.932;-9.018;2022-09-09T04:23:19;4.35;;;1.65;;
63032;SDS011;49121;38.932;-9.018;2022-09-09T04:25:20;6.22;;;1.67;;
63032;SDS011;49121;38.932;-9.018;2022-09-09T04:27:21;5.03;;;1.60;;
63032;SDS011;49121;38.932;-9.018;2022-09-09T04:29:22;6.35;;;1.83;;
63032;SDS011;49121;38.932;-9.018;2022-09-09T04:31:22;2.83;;;1.52;;
63032;SDS011;49121;38.932;-9.018;2022-09-09T04:33:26;11.60;;;1.90;;
63032;SDS011;49121;38.932;-9.018;2022-09-09T04:35:31;7.20;;;1.83;;
63032;SDS011;49121;38.932;-9.018;2022-09-09T04:37:35;9.18;;;1.52;;
63032;SDS011;49121;38.932;-9.018;2022-09-09T04:39:36;4.13;;;1.73;;
63032;SDS011;49121;38.932;-9.018;2022-09-09T04:41:37;8.88;;;1.90;;
63032;SDS011;49121;38.932;-9.018;2022-09-09T04:43:39;4.95;;;1.30;;
63032;SDS011;49121;38.932;-9.018;2022-09-09T04:45:42;8.02;;;2.70;;
63032;SDS011;49121;38.932;-9.018;2022-09-09T04:55:11;4.70;;;1.60;;
63032;SDS011;49121;38.932;-9.018;2022-09-09T04:57:14;6.07;;;1.80;;
63032;SDS011;49121;38.932;-9.018;2022-09-09T04:59:15;4.53;;;1.63;;
63032;SDS011;49121;38.932;-9.018;2022-09-09T05:01:22;3.95;;;1.63;;
63032;SDS011;49121;38.932;-9.018;2022-09-09T05:03:43;2.63;;;1.52;;
63032;SDS011;49121;38.932;-9.018;2022-09-09T05:05:47;5.30;;;1.70;;
63032;SDS011;49121;38.932;-9.018;2022-09-09T05:10:20;6.18;;;1.60;;
63032;SDS011;49121;38.932;-9.018;2022-09-09T05:12:36;6.82;;;1.58;;
63032;SDS011;49121;38.932;-9.018;2022-09-09T05:14:37;3.42;;;1.15;;
63032;SDS011;49121;38.932;-9.018;2022-09-09T05:16:39;5.43;;;1.42;;
63032;SDS011;49121;38.932;-9.018;2022-09-09T05:18:40;3.47;;;1.10;;
63032;SDS011;49121;38.932;-9.018;2022-09-09T05:20:42;6.70;;;1.73;;
63032;SDS011;49121;38.932;-9.018;2022-09-09T05:23:02;2.50;;;1.10;;
63032;SDS011;49121;38.932;-9.018;2022-09-09T05:25:15;5.13;;;1.52;;
63032;SDS011;49121;38.932;-9.018;2022-09-09T05:27:17;3.33;;;1.13;;
63032;SDS011;49121;38.932;-9.018;2022-09-09T05:29:19;1.67;;;1.02;;
63032;SDS011;49121;38.932;-9.018;2022-09-09T05:31:20;4.03;;;1.25;;
63032;SDS011;49121;38.932;-9.018;2022-09-09T05:33:26;2.45;;;0.77;;
63032;SDS011;49121;38.932;-9.018;2022-09-09T05:35:27;4.70;;;1.50;;
63032;SDS011;49121;38.932;-9.018;2022-09-09T05:37:28;1.88;;;0.68;;
63032;SDS011;49121;38.932;-9.018;2022-09-09T05:39:30;2.60;;;0.70;;
63032;SDS011;49121;38.932;-9.018;2022-09-09T05:41:31;1.10;;;0.80;;
63032;SDS011;49121;38.932;-9.018;2022-09-09T05:43:34;2.72;;;0.90;;
63032;SDS011;49121;38.932;-9.018;2022-09-09T05:45:36;3.00;;;1.00;;
63032;SDS011;49121;38.932;-9.018;2022-09-09T05:50:16;1.42;;;0.70;;
63032;SDS011;49121;38.932;-9.018;2022-09-09T05:52:35;3.70;;;0.88;;
63032;SDS011;49121;38.932;-9.018;2022-09-09T05:54:37;3.28;;;0.90;;
63032;SDS011;49121;38.932;-9.018;2022-09-09T05:56:39;2.03;;;0.77;;
63032;SDS011;49121;38.932;-9.018;2022-09-09T05:58:41;1.42;;;0.70;;
63032;SDS011;49121;38.932;-9.018;2022-09-09T06:00:47;4.25;;;1.00;;
63032;SDS011;49121;38.932;-9.018;2022-09-09T06:03:15;3.97;;;0.82;;
63032;SDS011;49121;38.932;-9.018;2022-09-09T06:05:17;1.90;;;0.88;;
63032;SDS011;49121;38.932;-9.018;2022-09-09T06:07:18;1.88;;;0.80;;
63032;SDS011;49121;38.932;-9.018;2022-09-09T06:09:19;2.33;;;0.90;;
63032;SDS011;49121;38.932;-9.018;2022-09-09T06:11:39;3.67;;;0.95;;
63032;SDS011;49121;38.932;-9.018;2022-09-09T06:13:41;2.35;;;0.80;;
63032;SDS011;49121;38.932;-9.018;2022-09-09T06:15:49;2.22;;;0.80;;
63032;SDS011;49121;38.932;-9.018;2022-09-09T06:17:54;3.72;;;0.90;;
63032;SDS011;49121;38.932;-9.018;2022-09-09T06:19:56;1.38;;;0.70;;
63032;SDS011;49121;38.932;-9.018;2022-09-09T06:21:57;2.92;;;1.08;;
63032;SDS011;49121;38.932;-9.018;2022-09-09T06:23:58;5.50;;;0.93;;
63032;SDS011;49121;38.932;-9.018;2022-09-09T06:26:00;3.47;;;1.23;;
63032;SDS011;49121;38.932;-9.018;2022-09-09T06:28:09;2.88;;;0.95;;
63032;SDS011;49121;38.932;-9.018;2022-09-09T06:30:10;3.97;;;0.98;;
63032;SDS011;49121;38.932;-9.018;2022-09-09T06:34:38;3.83;;;1.00;;
63032;SDS011;49121;38.932;-9.018;2022-09-09T06:36:40;3.13;;;0.85;;
63032;SDS011;49121;38.932;-9.018;2022-09-09T06:38:41;3.53;;;0.93;;
63032;SDS011;49121;38.932;-9.018;2022-09-09T06:40:53;1.23;;;1.00;;
63032;SDS011;49121;38.932;-9.018;2022-09-09T06:42:59;2.58;;;0.82;;
63032;SDS011;49121;38.932;-9.018;2022-09-09T06:45:12;1.13;;;0.70;;
63032;SDS011;49121;38.932;-9.018;2022-09-09T06:47:22;0.90;;;0.77;;
63032;SDS011;49121;38.932;-9.018;2022-09-09T06:49:24;4.05;;;0.82;;
63032;SDS011;49121;38.932;-9.018;2022-09-09T06:51:26;1.83;;;0.90;;
63032;SDS011;49121;38.932;-9.018;2022-09-09T06:53:28;3.63;;;0.80;;
63032;SDS011;49121;38.932;-9.018;2022-09-09T06:55:29;1.48;;;0.75;;
63032;SDS011;49121;38.932;-9.018;2022-09-09T06:57:30;4.03;;;0.70;;
63032;SDS011;49121;38.932;-9.018;2022-09-09T06:59:32;3.90;;;0.80;;
63032;SDS011;49121;38.932;-9.018;2022-09-09T07:01:51;1.15;;;0.60;;
63032;SDS011;49121;38.932;-9.018;2022-09-09T07:03:54;3.83;;;1.02;;
63032;SDS011;49121;38.932;-9.018;2022-09-09T07:05:56;1.58;;;0.80;;
63032;SDS011;49121;38.932;-9.018;2022-09-09T07:07:58;1.83;;;0.55;;
63032;SDS011;49121;38.932;-9.018;2022-09-09T07:10:00;2.58;;;0.70;;
63032;SDS011;49121;38.932;-9.018;2022-09-09T07:12:01;2.45;;;0.60;;
63032;SDS011;49121;38.932;-9.018;2022-09-09T07:14:05;0.90;;;0.60;;
63032;SDS011;49121;38.932;-9.018;2022-09-09T07:16:10;2.08;;;0.47;;
63032;SDS011;49121;38.932;-9.018;2022-09-09T07:18:12;1.05;;;0.50;;
63032;SDS011;49121;38.932;-9.018;2022-09-09T07:20:53;2.55;;;0.60;;
63032;SDS011;49121;38.932;-9.018;2022-09-09T07:22:59;1.60;;;0.50;;
63032;SDS011;49121;38.932;-9.018;2022-09-09T07:25:00;1.60;;;0.70;;
63032;SDS011;49121;38.932;-9.018;2022-09-09T07:27:03;3.88;;;0.70;;
63032;SDS011;49121;38.932;-9.018;2022-09-09T07:29:09;1.15;;;0.63;;
63032;SDS011;49121;38.932;-9.018;2022-09-09T07:31:15;0.77;;;0.50;;
63032;SDS011;49121;38.932;-9.018;2022-09-09T07:33:21;0.70;;;0.60;;
63032;SDS011;49121;38.932;-9.018;2022-09-09T07:35:22;2.05;;;0.68;;
63032;SDS011;49121;38.932;-9.018;2022-09-09T07:37:23;1.90;;;1.00;;
63032;SDS011;49121;38.932;-9.018;2022-09-09T07:39:25;1.95;;;0.63;;
63032;SDS011;49121;38.932;-9.018;2022-09-09T07:41:32;1.38;;;0.60;;
63032;SDS011;49121;38.932;-9.018;2022-09-09T07:43:41;2.05;;;0.60;;
63032;SDS011;49121;38.932;-9.018;2022-09-09T07:45:43;4.07;;;0.68;;
63032;SDS011;49121;38.932;-9.018;2022-09-09T07:47:44;1.33;;;0.65;;
63032;SDS011;49121;38.932;-9.018;2022-09-09T07:49:45;5.10;;;0.57;;
63032;SDS011;49121;38.932;-9.018;2022-09-09T07:51:48;3.40;;;0.80;;
63032;SDS011;49121;38.932;-9.018;2022-09-09T07:54:09;1.02;;;0.50;;
63032;SDS011;49121;38.932;-9.018;2022-09-09T07:56:30;0.50;;;0.47;;
63032;SDS011;49121;38.932;-9.018;2022-09-09T07:58:32;0.88;;;0.55;;
63032;SDS011;49121;38.932;-9.018;2022-09-09T08:00:51;1.67;;;0.50;;
63032;SDS011;49121;38.932;-9.018;2022-09-09T08:03:30;0.70;;;0.63;;
63032;SDS011;49121;38.932;-9.018;2022-09-09T08:05:31;0.60;;;0.50;;
63032;SDS011;49121;38.932;-9.018;2022-09-09T08:07:41;1.88;;;0.40;;
63032;SDS011;49121;38.932;-9.018;2022-09-09T08:09:41;4.97;;;0.63;;
63032;SDS011;49121;38.932;-9.018;2022-09-09T08:11:51;1.00;;;0.38;;
63032;SDS011;49121;38.932;-9.018;2022-09-09T08:13:53;0.80;;;0.47;;
63032;SDS011;49121;38.932;-9.018;2022-09-09T08:15:54;1.85;;;0.40;;
63032;SDS011;49121;38.932;-9.018;2022-09-09T08:17:55;0.45;;;0.40;;
63032;SDS011;49121;38.932;-9.018;2022-09-09T08:19:57;4.18;;;0.50;;
63032;SDS011;49121;38.932;-9.018;2022-09-09T08:22:01;2.45;;;0.60;;
63032;SDS011;49121;38.932;-9.018;2022-09-09T08:24:04;1.27;;;0.55;;
63032;SDS011;49121;38.932;-9.018;2022-09-09T08:26:07;1.02;;;0.40;;
63032;SDS011;49121;38.932;-9.018;2022-09-09T08:28:13;1.13;;;0.30;;
63032;SDS011;49121;38.932;-9.018;2022-09-09T08:30:14;0.40;;;0.40;;
63032;SDS011;49121;38.932;-9.018;2022-09-09T08:32:15;0.75;;;0.30;;
63032;SDS011;49121;38.932;-9.018;2022-09-09T08:34:18;0.40;;;0.40;;
63032;SDS011;49121;38.932;-9.018;2022-09-09T08:36:22;2.67;;;0.38;;
63032;SDS011;49121;38.932;-9.018;2022-09-09T08:38:25;0.65;;;0.30;;
63032;SDS011;49121;38.932;-9.018;2022-09-09T08:40:29;0.47;;;0.40;;
63032;SDS011;49121;38.932;-9.018;2022-09-09T08:51:41;1.42;;;0.35;;
63032;SDS011;49121;38.932;-9.018;2022-09-09T08:53:44;2.70;;;0.40;;
63032;SDS011;49121;38.932;-9.018;2022-09-09T08:55:56;4.57;;;0.60;;
63032;SDS011;49121;38.932;-9.018;2022-09-09T08:58:41;3.00;;;0.40;;
63032;SDS011;49121;38.932;-9.018;2022-09-09T09:08:07;0.75;;;0.40;;
63032;SDS011;49121;38.932;-9.018;2022-09-09T09:12:46;0.88;;;0.40;;
63032;SDS011;49121;38.932;-9.018;2022-09-09T09:14:50;0.30;;;0.30;;
63032;SDS011;49121;38.932;-9.018;2022-09-09T09:19:04;0.50;;;0.40;;
63032;SDS011;49121;38.932;-9.018;2022-09-09T09:21:12;0.60;;;0.45;;
63032;SDS011;49121;38.932;-9.018;2022-09-09T09:23:44;0.30;;;0.30;;
63032;SDS011;49121;38.932;-9.018;2022-09-09T09:25:49;0.40;;;0.40;;
63032;SDS011;49121;38.932;-9.018;2022-09-09T09:27:57;1.00;;;0.50;;
63032;SDS011;49121;38.932;-9.018;2022-09-09T09:30:15;0.30;;;0.30;;
63032;SDS011;49121;38.932;-9.018;2022-09-09T09:32:18;1.20;;;0.40;;
63032;SDS011;49121;38.932;-9.018;2022-09-09T09:34:21;21.55;;;1.85;;
63032;SDS011;49121;38.932;-9.018;2022-09-09T09:36:33;44.17;;;4.35;;
63032;SDS011;49121;38.932;-9.018;2022-09-09T09:38:37;0.30;;;0.30;;
63032;SDS011;49121;38.932;-9.018;2022-09-09T09:40:47;1.98;;;0.50;;
63032;SDS011;49121;38.932;-9.018;2022-09-09T09:42:57;0.85;;;0.45;;
63032;SDS011;49121;38.932;-9.018;2022-09-09T09:45:17;0.60;;;0.50;;
63032;SDS011;49121;38.932;-9.018;2022-09-09T09:47:43;1.67;;;0.70;;
63032;SDS011;49121;38.932;-9.018;2022-09-09T09:49:58;0.47;;;0.47;;
63032;SDS011;49121;38.932;-9.018;2022-09-09T09:52:06;3.10;;;0.40;;
63032;SDS011;49121;38.932;-9.018;2022-09-09T09:54:18;1.70;;;0.60;;
63032;SDS011;49121;38.932;-9.018;2022-09-09T09:56:30;0.75;;;0.50;;
63032;SDS011;49121;38.932;-9.018;2022-09-09T10:00:52;1.77;;;0.50;;
63032;SDS011;49121;38.932;-9.018;2022-09-09T10:02:59;2.40;;;0.60;;
63032;SDS011;49121;38.932;-9.018;2022-09-09T10:05:06;1.58;;;0.52;;
63032;SDS011;49121;38.932;-9.018;2022-09-09T10:07:17;10.40;;;1.55;;
63032;SDS011;49121;38.932;-9.018;2022-09-09T10:13:56;2.75;;;0.60;;
63032;SDS011;49121;38.932;-9.018;2022-09-09T10:23:04;0.70;;;0.50;;
63032;SDS011;49121;38.932;-9.018;2022-09-09T10:30:24;0.55;;;0.50;;
63032;SDS011;49121;38.932;-9.018;2022-09-09T10:37:16;0.65;;;0.50;;
63032;SDS011;49121;38.932;-9.018;2022-09-09T10:39:41;0.63;;;0.45;;
63032;SDS011;49121;38.932;-9.018;2022-09-09T10:48:39;2.25;;;0.60;;
63032;SDS011;49121;38.932;-9.018;2022-09-09T10:51:16;2.83;;;0.60;;
63032;SDS011;49121;38.932;-9.018;2022-09-09T10:53:49;1.75;;;0.50;;
63032;SDS011;49121;38.932;-9.018;2022-09-09T10:56:07;0.95;;;0.50;;
63032;SDS011;49121;38.932;-9.018;2022-09-09T10:58:33;0.88;;;0.60;;
63032;SDS011;49121;38.932;-9.018;2022-09-09T11:02:49;2.03;;;0.60;;
63032;SDS011;49121;38.932;-9.018;2022-09-09T11:05:21;0.50;;;0.50;;
63032;SDS011;49121;38.932;-9.018;2022-09-09T11:07:39;0.77;;;0.40;;
63032;SDS011;49121;38.932;-9.018;2022-09-09T11:09:47;4.35;;;0.60;;
63032;SDS011;49121;38.932;-9.018;2022-09-09T11:18:28;1.48;;;0.60;;
63032;SDS011;49121;38.932;-9.018;2022-09-09T11:20:29;1.05;;;0.60;;
63032;SDS011;49121;38.932;-9.018;2022-09-09T11:22:46;0.47;;;0.45;;
63032;SDS011;49121;38.932;-9.018;2022-09-09T11:38:47;1.25;;;0.70;;
63032;SDS011;49121;38.932;-9.018;2022-09-09T11:41:09;0.40;;;0.40;;
63032;SDS011;49121;38.932;-9.018;2022-09-09T11:43:11;1.70;;;0.40;;
63032;SDS011;49121;38.932;-9.018;2022-09-09T11:45:24;1.75;;;0.40;;
63032;SDS011;49121;38.932;-9.018;2022-09-09T11:47:29;6.22;;;1.10;;
63032;SDS011;49121;38.932;-9.018;2022-09-09T11:51:38;2.90;;;0.73;;
63032;SDS011;49121;38.932;-9.018;2022-09-09T11:56:22;2.85;;;0.60;;
63032;SDS011;49121;38.932;-9.018;2022-09-09T11:58:26;1.67;;;0.90;;
63032;SDS011;49121;38.932;-9.018;2022-09-09T12:02:48;1.67;;;1.00;;
63032;SDS011;49121;38.932;-9.018;2022-09-09T12:09:33;1.40;;;0.77;;
63032;SDS011;49121;38.932;-9.018;2022-09-09T12:12:18;0.82;;;0.77;;
63032;SDS011;49121;38.932;-9.018;2022-09-09T12:14:35;5.40;;;2.13;;
63032;SDS011;49121;38.932;-9.018;2022-09-09T12:16:38;9.55;;;1.30;;
63032;SDS011;49121;38.932;-9.018;2022-09-09T12:18:40;5.57;;;1.63;;
63032;SDS011;49121;38.932;-9.018;2022-09-09T12:20:50;3.63;;;1.90;;
63032;SDS011;49121;38.932;-9.018;2022-09-09T12:30:08;2.95;;;1.10;;
63032;SDS011;49121;38.932;-9.018;2022-09-09T12:32:22;2.70;;;1.52;;
63032;SDS011;49121;38.932;-9.018;2022-09-09T12:34:40;3.03;;;1.48;;
63032;SDS011;49121;38.932;-9.018;2022-09-09T12:36:48;2.80;;;0.90;;
63032;SDS011;49121;38.932;-9.018;2022-09-09T12:38:57;0.97;;;0.70;;
63032;SDS011;49121;38.932;-9.018;2022-09-09T12:41:21;0.98;;;0.60;;
63032;SDS011;49121;38.932;-9.018;2022-09-09T12:43:24;2.10;;;0.90;;
63032;SDS011;49121;38.932;-9.018;2022-09-09T12:45:45;3.38;;;0.93;;
63032;SDS011;49121;38.932;-9.018;2022-09-09T12:49:52;4.45;;;0.95;;
63032;SDS011;49121;38.932;-9.018;2022-09-09T12:51:54;4.03;;;0.85;;
63032;SDS011;49121;38.932;-9.018;2022-09-09T12:53:57;2.30;;;0.88;;
63032;SDS011;49121;38.932;-9.018;2022-09-09T12:56:00;4.22;;;1.50;;
63032;SDS011;49121;38.932;-9.018;2022-09-09T12:58:05;2.25;;;1.30;;
63032;SDS011;49121;38.932;-9.018;2022-09-09T13:02:45;2.45;;;1.15;;
63032;SDS011;49121;38.932;-9.018;2022-09-09T13:04:48;3.53;;;1.02;;
63032;SDS011;49121;38.932;-9.018;2022-09-09T13:06:50;2.65;;;1.00;;
63032;SDS011;49121;38.932;-9.018;2022-09-09T13:08:52;2.40;;;1.33;;
63032;SDS011;49121;38.932;-9.018;2022-09-09T13:10:57;4.53;;;1.00;;
63032;SDS011;49121;38.932;-9.018;2022-09-09T13:13:03;2.35;;;1.10;;
63032;SDS011;49121;38.932;-9.018;2022-09-09T13:15:05;3.58;;;1.70;;
63032;SDS011;49121;38.932;-9.018;2022-09-09T13:17:24;2.05;;;0.77;;
63032;SDS011;49121;38.932;-9.018;2022-09-09T13:19:38;1.00;;;0.60;;
63032;SDS011;49121;38.932;-9.018;2022-09-09T13:21:45;1.88;;;0.75;;
63032;SDS011;49121;38.932;-9.018;2022-09-09T13:23:49;5.47;;;1.73;;
63032;SDS011;49121;38.932;-9.018;2022-09-09T13:26:03;9.35;;;3.47;;
63032;SDS011;49121;38.932;-9.018;2022-09-09T13:28:18;6.05;;;1.85;;
63032;SDS011;49121;38.932;-9.018;2022-09-09T13:33:04;6.78;;;0.90;;
63032;SDS011;49121;38.932;-9.018;2022-09-09T13:35:23;5.18;;;1.02;;
63032;SDS011;49121;38.932;-9.018;2022-09-09T13:39:36;5.80;;;1.15;;
63032;SDS011;49121;38.932;-9.018;2022-09-09T13:42:22;2.88;;;0.90;;
63032;SDS011;49121;38.932;-9.018;2022-09-09T13:44:34;3.30;;;1.00;;
63032;SDS011;49121;38.932;-9.018;2022-09-09T13:46:41;5.25;;;0.90;;
63032;SDS011;49121;38.932;-9.018;2022-09-09T13:48:42;1.00;;;0.80;;
63032;SDS011;49121;38.932;-9.018;2022-09-09T13:50:54;4.15;;;1.10;;
63032;SDS011;49121;38.932;-9.018;2022-09-09T13:53:07;4.13;;;1.10;;
63032;SDS011;49121;38.932;-9.018;2022-09-09T13:55:08;3.03;;;0.90;;
63032;SDS011;49121;38.932;-9.018;2022-09-09T13:57:28;3.13;;;0.98;;
63032;SDS011;49121;38.932;-9.018;2022-09-09T13:59:29;4.78;;;0.90;;
63032;SDS011;49121;38.932;-9.018;2022-09-09T14:01:30;2.63;;;0.90;;
63032;SDS011;49121;38.932;-9.018;2022-09-09T14:03:31;8.68;;;1.20;;
63032;SDS011;49121;38.932;-9.018;2022-09-09T14:05:32;1.58;;;1.02;;
63032;SDS011;49121;38.932;-9.018;2022-09-09T14:07:34;3.65;;;1.00;;
63032;SDS011;49121;38.932;-9.018;2022-09-09T14:09:49;4.57;;;1.20;;
63032;SDS011;49121;38.932;-9.018;2022-09-09T14:11:51;1.80;;;0.82;;
63032;SDS011;49121;38.932;-9.018;2022-09-09T14:13:52;3.38;;;0.98;;
63032;SDS011;49121;38.932;-9.018;2022-09-09T14:15:53;4.50;;;1.00;;
63032;SDS011;49121;38.932;-9.018;2022-09-09T14:17:53;2.78;;;1.25;;
63032;SDS011;49121;38.932;-9.018;2022-09-09T14:19:54;3.53;;;1.20;;
63032;SDS011;49121;38.932;-9.018;2022-09-09T14:21:56;4.40;;;1.60;;
63032;SDS011;49121;38.932;-9.018;2022-09-09T14:23:58;4.57;;;1.40;;
63032;SDS011;49121;38.932;-9.018;2022-09-09T14:25:58;2.17;;;1.30;;
63032;SDS011;49121;38.932;-9.018;2022-09-09T14:27:59;3.97;;;1.35;;
63032;SDS011;49121;38.932;-9.018;2022-09-09T14:30:18;2.88;;;1.30;;
63032;SDS011;49121;38.932;-9.018;2022-09-09T14:32:19;3.08;;;1.23;;
63032;SDS011;49121;38.932;-9.018;2022-09-09T14:34:19;8.20;;;1.63;;
63032;SDS011;49121;38.932;-9.018;2022-09-09T14:36:20;16.80;;;1.50;;
63032;SDS011;49121;38.932;-9.018;2022-09-09T14:38:21;8.52;;;1.23;;
63032;SDS011;49121;38.932;-9.018;2022-09-09T14:40:22;5.85;;;1.13;;
63032;SDS011;49121;38.932;-9.018;2022-09-09T14:42:22;3.90;;;1.23;;
63032;SDS011;49121;38.932;-9.018;2022-09-09T14:44:23;3.83;;;1.20;;
63032;SDS011;49121;38.932;-9.018;2022-09-09T14:46:24;7.00;;;1.50;;
63032;SDS011;49121;38.932;-9.018;2022-09-09T14:48:25;7.88;;;1.38;;
63032;SDS011;49121;38.932;-9.018;2022-09-09T14:50:25;14.93;;;1.65;;
63032;SDS011;49121;38.932;-9.018;2022-09-09T14:52:26;7.05;;;1.17;;
63032;SDS011;49121;38.932;-9.018;2022-09-09T14:54:27;4.30;;;1.50;;
63032;SDS011;49121;38.932;-9.018;2022-09-09T14:56:29;5.50;;;1.58;;
63032;SDS011;49121;38.932;-9.018;2022-09-09T14:58:31;5.13;;;1.35;;
63032;SDS011;49121;38.932;-9.018;2022-09-09T15:00:32;2.22;;;1.27;;
63032;SDS011;49121;38.932;-9.018;2022-09-09T15:02:33;4.97;;;1.10;;
63032;SDS011;49121;38.932;-9.018;2022-09-09T15:04:34;6.75;;;1.23;;
63032;SDS011;49121;38.932;-9.018;2022-09-09T15:06:35;4.15;;;1.23;;
63032;SDS011;49121;38.932;-9.018;2022-09-09T15:08:40;8.82;;;1.35;;
63032;SDS011;49121;38.932;-9.018;2022-09-09T15:10:42;12.00;;;1.52;;
63032;SDS011;49121;38.932;-9.018;2022-09-09T15:12:44;2.78;;;1.00;;
63032;SDS011;49121;38.932;-9.018;2022-09-09T15:14:45;6.50;;;1.58;;
63032;SDS011;49121;38.932;-9.018;2022-09-09T15:16:46;13.65;;;1.23;;
63032;SDS011;49121;38.932;-9.018;2022-09-09T15:18:50;7.43;;;1.17;;
63032;SDS011;49121;38.932;-9.018;2022-09-09T15:20:51;5.40;;;1.10;;
63032;SDS011;49121;38.932;-9.018;2022-09-09T15:22:53;4.70;;;1.10;;
63032;SDS011;49121;38.932;-9.018;2022-09-09T15:24:54;0.75;;;0.52;;
63032;SDS011;49121;38.932;-9.018;2022-09-09T15:26:54;2.50;;;0.70;;
63032;SDS011;49121;38.932;-9.018;2022-09-09T15:28:56;1.70;;;0.65;;
63032;SDS011;49121;38.932;-9.018;2022-09-09T15:30:59;1.05;;;0.50;;
63032;SDS011;49121;38.932;-9.018;2022-09-09T15:33:07;3.70;;;0.50;;